sensor_id;sensor_type;location;lat;lon;timestamp;pressure;altitude;pressure_sealevel;temperature;humidity
70407;BME280;57821;52.202;0.154;2023-10-19T00:00:41;98387.59;;;15.84;100.00
70407;BME280;57821;52.202;0.154;2023-10-19T00:03:12;98397.28;;;15.82;100.00
70407;BME280;57821;52.202;0.154;2023-10-19T00:05:39;98399.13;;;15.80;100.00
70407;BME280;57821;52.202;0.154;2023-10-19T00:08:08;98395.78;;;15.78;100.00
70407;BME280;57821;52.202;0.154;2023-10-19T00:10:50;98409.78;;;15.77;100.00
70407;BME280;57821;52.202;0.154;2023-10-19T00:13:28;98427.25;;;15.76;100.00
70407;BME280;57821;52.202;0.154;2023-10-19T00:15:56;98427.31;;;15.75;100.00
70407;BME280;57821;52.202;0.154;2023-10-19T00:18:24;98426.56;;;15.73;100.00
70407;BME280;57821;52.202;0.154;2023-10-19T00:20:52;98422.47;;;15.69;100.00
70407;BME280;57821;52.202;0.154;2023-10-19T00:23:23;98427.53;;;15.72;100.00
70407;BME280;57821;52.202;0.154;2023-10-19T00:25:59;98437.13;;;15.71;100.00
70407;BME280;57821;52.202;0.154;2023-10-19T00:28:26;98431.06;;;15.71;100.00
70407;BME280;57821;52.202;0.154;2023-10-19T00:30:54;98432.91;;;15.69;100.00
70407;BME280;57821;52.202;0.154;2023-10-19T00:33:26;98439.81;;;15.70;100.00
70407;BME280;57821;52.202;0.154;2023-10-19T00:35:55;98432.91;;;15.69;100.00
70407;BME280;57821;52.202;0.154;2023-10-19T00:38:27;98444.28;;;15.68;100.00
70407;BME280;57821;52.202;0.154;2023-10-19T00:40:54;98440.03;;;15.67;100.00
70407;BME280;57821;52.202;0.154;2023-10-19T00:43:29;98450.47;;;15.67;100.00
70407;BME280;57821;52.202;0.154;2023-10-19T00:46:05;98447.94;;;15.65;100.00
70407;BME280;57821;52.202;0.154;2023-10-19T00:48:57;98445.50;;;15.62;100.00
70407;BME280;57821;52.202;0.154;2023-10-19T00:51:35;98458.56;;;15.62;100.00
70407;BME280;57821;52.202;0.154;2023-10-19T00:54:06;98460.53;;;15.58;100.00
70407;BME280;57821;52.202;0.154;2023-10-19T00:56:37;98467.34;;;15.61;100.00
70407;BME280;57821;52.202;0.154;2023-10-19T00:59:07;98473.41;;;15.61;100.00
70407;BME280;57821;52.202;0.154;2023-10-19T01:01:50;98474.59;;;15.56;100.00
70407;BME280;57821;52.202;0.154;2023-10-19T01:04:21;98483.41;;;15.55;100.00
70407;BME280;57821;52.202;0.154;2023-10-19T01:06:50;98484.03;;;15.58;100.00
70407;BME280;57821;52.202;0.154;2023-10-19T01:09:34;98483.28;;;15.56;100.00
70407;BME280;57821;52.202;0.154;2023-10-19T01:12:02;98489.34;;;15.57;100.00
70407;BME280;57821;52.202;0.154;2023-10-19T01:15:12;98482.44;;;15.56;100.00
70407;BME280;57821;52.202;0.154;2023-10-19T01:17:41;98491.13;;;15.56;100.00
70407;BME280;57821;52.202;0.154;2023-10-19T01:20:15;98494.66;;;15.55;100.00
70407;BME280;57821;52.202;0.154;2023-10-19T01:23:05;98496.34;;;15.56;100.00
70407;BME280;57821;52.202;0.154;2023-10-19T01:28:32;98504.28;;;15.55;100.00
70407;BME280;57821;52.202;0.154;2023-10-19T01:31:11;98493.09;;;15.53;100.00
70407;BME280;57821;52.202;0.154;2023-10-19T01:33:43;98498.97;;;15.56;100.00
70407;BME280;57821;52.202;0.154;2023-10-19T01:36:12;98503.44;;;15.54;100.00
70407;BME280;57821;52.202;0.154;2023-10-19T01:38:41;98510.53;;;15.52;100.00
70407;BME280;57821;52.202;0.154;2023-10-19T01:41:09;98505.31;;;15.52;100.00
70407;BME280;57821;52.202;0.154;2023-10-19T01:43:47;98510.66;;;15.49;100.00
70407;BME280;57821;52.202;0.154;2023-10-19T01:46:17;98510.66;;;15.49;100.00
70407;BME280;57821;52.202;0.154;2023-10-19T01:48:59;98505.63;;;15.46;100.00
70407;BME280;57821;52.202;0.154;2023-10-19T01:51:30;98505.78;;;15.43;100.00
70407;BME280;57821;52.202;0.154;2023-10-19T01:53:57;98506.84;;;15.41;99.93
70407;BME280;57821;52.202;0.154;2023-10-19T01:56:24;98517.56;;;15.36;99.55
70407;BME280;57821;52.202;0.154;2023-10-19T01:58:51;98511.75;;;15.31;98.80
70407;BME280;57821;52.202;0.154;2023-10-19T02:01:19;98512.97;;;15.26;98.09
70407;BME280;57821;52.202;0.154;2023-10-19T02:04:02;98518.63;;;15.18;97.55
70407;BME280;57821;52.202;0.154;2023-10-19T02:06:31;98517.28;;;15.11;97.14
70407;BME280;57821;52.202;0.154;2023-10-19T02:09:08;98521.16;;;15.04;97.10
70407;BME280;57821;52.202;0.154;2023-10-19T02:11:45;98523.28;;;14.97;96.29
70407;BME280;57821;52.202;0.154;2023-10-19T02:14:15;98525.41;;;14.91;96.08
70407;BME280;57821;52.202;0.154;2023-10-19T02:16:43;98528.53;;;14.82;95.69
70407;BME280;57821;52.202;0.154;2023-10-19T02:19:10;98516.75;;;14.74;95.76
70407;BME280;57821;52.202;0.154;2023-10-19T02:21:37;98526.59;;;14.69;95.18
70407;BME280;57821;52.202;0.154;2023-10-19T02:24:08;98519.94;;;14.64;95.36
70407;BME280;57821;52.202;0.154;2023-10-19T02:26:35;98517.69;;;14.58;95.72
70407;BME280;57821;52.202;0.154;2023-10-19T02:29:04;98522.38;;;14.51;95.80
70407;BME280;57821;52.202;0.154;2023-10-19T02:31:36;98519.97;;;14.48;95.90
70407;BME280;57821;52.202;0.154;2023-10-19T02:34:08;98520.13;;;14.45;95.88
70407;BME280;57821;52.202;0.154;2023-10-19T02:36:38;98534.09;;;14.44;96.46
70407;BME280;57821;52.202;0.154;2023-10-19T02:39:07;98518.59;;;14.41;96.90
70407;BME280;57821;52.202;0.154;2023-10-19T02:44:08;98531.66;;;14.41;96.92
70407;BME280;57821;52.202;0.154;2023-10-19T02:46:51;98543.00;;;14.40;97.72
70407;BME280;57821;52.202;0.154;2023-10-19T02:49:20;98538.63;;;14.41;98.04
70407;BME280;57821;52.202;0.154;2023-10-19T02:51:49;98530.72;;;14.42;98.00
70407;BME280;57821;52.202;0.154;2023-10-19T02:54:17;98535.94;;;14.42;98.51
70407;BME280;57821;52.202;0.154;2023-10-19T02:56:47;98534.09;;;14.44;98.95
70407;BME280;57821;52.202;0.154;2023-10-19T02:59:17;98533.91;;;14.47;99.25
70407;BME280;57821;52.202;0.154;2023-10-19T03:01:50;98519.97;;;14.48;99.56
70407;BME280;57821;52.202;0.154;2023-10-19T03:04:18;98514.56;;;14.51;99.52
70407;BME280;57821;52.202;0.154;2023-10-19T03:06:45;98518.84;;;14.52;99.34
70407;BME280;57821;52.202;0.154;2023-10-19T03:09:12;98524.00;;;14.54;99.92
70407;BME280;57821;52.202;0.154;2023-10-19T03:11:43;98510.88;;;14.55;99.60
70407;BME280;57821;52.202;0.154;2023-10-19T03:14:11;98512.66;;;14.55;99.67
70407;BME280;57821;52.202;0.154;2023-10-19T03:16:38;98515.16;;;14.56;99.96
70407;BME280;57821;52.202;0.154;2023-10-19T03:19:09;98513.31;;;14.58;100.00
70407;BME280;57821;52.202;0.154;2023-10-19T03:21:35;98519.28;;;14.60;100.00
70407;BME280;57821;52.202;0.154;2023-10-19T03:24:11;98514.91;;;14.61;100.00
70407;BME280;57821;52.202;0.154;2023-10-19T03:26:50;98512.97;;;14.64;100.00
70407;BME280;57821;52.202;0.154;2023-10-19T03:29:17;98502.38;;;14.67;100.00
70407;BME280;57821;52.202;0.154;2023-10-19T03:31:53;98513.56;;;14.69;100.00
70407;BME280;57821;52.202;0.154;2023-10-19T03:34:20;98506.41;;;14.73;100.00
70407;BME280;57821;52.202;0.154;2023-10-19T03:36:50;98507.16;;;14.75;100.00
70407;BME280;57821;52.202;0.154;2023-10-19T03:39:17;98512.22;;;14.78;100.00
70407;BME280;57821;52.202;0.154;2023-10-19T03:41:46;98502.63;;;14.78;100.00
70407;BME280;57821;52.202;0.154;2023-10-19T03:44:13;98503.28;;;14.82;100.00
70407;BME280;57821;52.202;0.154;2023-10-19T03:46:49;98509.25;;;14.84;100.00
70407;BME280;57821;52.202;0.154;2023-10-19T03:49:20;98500.41;;;14.87;100.00
70407;BME280;57821;52.202;0.154;2023-10-19T03:51:47;98497.72;;;14.88;100.00
70407;BME280;57821;52.202;0.154;2023-10-19T03:54:48;98515.06;;;14.89;100.00
70407;BME280;57821;52.202;0.154;2023-10-19T03:57:18;98496.03;;;14.87;100.00
70407;BME280;57821;52.202;0.154;2023-10-19T03:59:56;98500.06;;;14.93;100.00
70407;BME280;57821;52.202;0.154;2023-10-19T04:02:24;98499.06;;;14.95;100.00
70407;BME280;57821;52.202;0.154;2023-10-19T04:04:52;98496.34;;;14.97;100.00
70407;BME280;57821;52.202;0.154;2023-10-19T04:07:19;98500.63;;;14.98;100.00
70407;BME280;57821;52.202;0.154;2023-10-19T04:09:52;98497.94;;;14.99;100.00
70407;BME280;57821;52.202;0.154;2023-10-19T04:12:39;98489.47;;;14.96;100.00
70407;BME280;57821;52.202;0.154;2023-10-19T04:15:08;98503.00;;;15.02;100.00
70407;BME280;57821;52.202;0.154;2023-10-19T04:17:48;98505.50;;;15.04;100.00
70407;BME280;57821;52.202;0.154;2023-10-19T04:20:17;98502.81;;;15.05;100.00
70407;BME280;57821;52.202;0.154;2023-10-19T04:22:44;98508.88;;;15.06;100.00
70407;BME280;57821;52.202;0.154;2023-10-19T04:25:12;98512.25;;;15.08;100.00
70407;BME280;57821;52.202;0.154;2023-10-19T04:27:40;98507.03;;;15.08;100.00
70407;BME280;57821;52.202;0.154;2023-10-19T04:30:13;98511.28;;;15.09;100.00
70407;BME280;57821;52.202;0.154;2023-10-19T04:32:43;98508.53;;;15.12;100.00
70407;BME280;57821;52.202;0.154;2023-10-19T04:35:11;98500.69;;;15.12;100.00
70407;BME280;57821;52.202;0.154;2023-10-19T04:37:40;98503.13;;;15.15;100.00
70407;BME280;57821;52.202;0.154;2023-10-19T04:40:11;98501.25;;;15.17;100.00
70407;BME280;57821;52.202;0.154;2023-10-19T04:42:38;98499.22;;;15.22;100.00
70407;BME280;57821;52.202;0.154;2023-10-19T04:45:06;98504.38;;;15.24;100.00
70407;BME280;57821;52.202;0.154;2023-10-19T04:47:33;98498.09;;;15.26;100.00
70407;BME280;57821;52.202;0.154;2023-10-19T04:50:03;98504.09;;;15.28;100.00
70407;BME280;57821;52.202;0.154;2023-10-19T04:52:30;98494.41;;;15.30;100.00
70407;BME280;57821;52.202;0.154;2023-10-19T04:54:57;98500.38;;;15.32;100.00
70407;BME280;57821;52.202;0.154;2023-10-19T04:57:24;98496.09;;;15.31;100.00
70407;BME280;57821;52.202;0.154;2023-10-19T04:59:52;98494.13;;;15.35;100.00
70407;BME280;57821;52.202;0.154;2023-10-19T05:02:19;98494.78;;;15.38;100.00
70407;BME280;57821;52.202;0.154;2023-10-19T05:04:46;98495.53;;;15.40;100.00
70407;BME280;57821;52.202;0.154;2023-10-19T05:07:13;98485.84;;;15.42;100.00
70407;BME280;57821;52.202;0.154;2023-10-19T05:09:44;98485.66;;;15.45;100.00
70407;BME280;57821;52.202;0.154;2023-10-19T05:12:11;98482.97;;;15.47;100.00
70407;BME280;57821;52.202;0.154;2023-10-19T05:14:38;98487.91;;;15.51;100.00
70407;BME280;57821;52.202;0.154;2023-10-19T05:17:05;98486.19;;;15.52;100.00
70407;BME280;57821;52.202;0.154;2023-10-19T05:19:33;98481.59;;;15.55;100.00
70407;BME280;57821;52.202;0.154;2023-10-19T05:22:05;98477.91;;;15.59;100.00
70407;BME280;57821;52.202;0.154;2023-10-19T05:24:33;98474.34;;;15.60;100.00
70407;BME280;57821;52.202;0.154;2023-10-19T05:26:59;98473.41;;;15.61;100.00
70407;BME280;57821;52.202;0.154;2023-10-19T05:29:26;98469.69;;;15.66;100.00
70407;BME280;57821;52.202;0.154;2023-10-19T05:31:53;98479.94;;;15.69;100.00
70407;BME280;57821;52.202;0.154;2023-10-19T05:34:21;98470.25;;;15.71;100.00
70407;BME280;57821;52.202;0.154;2023-10-19T05:36:48;98477.03;;;15.73;100.00
70407;BME280;57821;52.202;0.154;2023-10-19T05:39:18;98461.28;;;15.75;100.00
70407;BME280;57821;52.202;0.154;2023-10-19T05:41:45;98468.94;;;15.78;100.00
70407;BME280;57821;52.202;0.154;2023-10-19T05:44:14;98469.69;;;15.80;100.00
70407;BME280;57821;52.202;0.154;2023-10-19T05:46:41;98468.75;;;15.81;100.00
70407;BME280;57821;52.202;0.154;2023-10-19T05:49:08;98459.97;;;15.82;100.00
70407;BME280;57821;52.202;0.154;2023-10-19T05:51:34;98466.91;;;15.83;100.00
70407;BME280;57821;52.202;0.154;2023-10-19T05:54:01;98466.78;;;15.84;100.00
70407;BME280;57821;52.202;0.154;2023-10-19T05:56:29;98468.38;;;15.87;100.00
70407;BME280;57821;52.202;0.154;2023-10-19T05:58:57;98468.28;;;15.88;100.00
70407;BME280;57821;52.202;0.154;2023-10-19T06:01:24;98467.38;;;15.89;100.00
70407;BME280;57821;52.202;0.154;2023-10-19T06:03:51;98459.41;;;15.91;100.00
70407;BME280;57821;52.202;0.154;2023-10-19T06:06:22;98464.63;;;15.91;100.00
70407;BME280;57821;52.202;0.154;2023-10-19T06:08:48;98467.25;;;15.91;100.00
70407;BME280;57821;52.202;0.154;2023-10-19T06:11:20;98468.00;;;15.93;100.00
70407;BME280;57821;52.202;0.154;2023-10-19T06:13:47;98466.16;;;15.95;100.00
70407;BME280;57821;52.202;0.154;2023-10-19T06:16:14;98463.53;;;15.95;100.00
70407;BME280;57821;52.202;0.154;2023-10-19T06:18:42;98465.19;;;15.96;100.00
70407;BME280;57821;52.202;0.154;2023-10-19T06:21:10;98462.56;;;15.96;100.00
70407;BME280;57821;52.202;0.154;2023-10-19T06:23:38;98469.47;;;15.97;100.00
70407;BME280;57821;52.202;0.154;2023-10-19T06:26:12;98471.16;;;15.98;100.00
70407;BME280;57821;52.202;0.154;2023-10-19T06:28:39;98467.63;;;15.99;100.00
70407;BME280;57821;52.202;0.154;2023-10-19T06:31:07;98468.56;;;15.98;100.00
70407;BME280;57821;52.202;0.154;2023-10-19T06:33:35;98462.41;;;15.99;100.00
70407;BME280;57821;52.202;0.154;2023-10-19T06:36:12;98472.78;;;16.00;100.00
70407;BME280;57821;52.202;0.154;2023-10-19T06:38:39;98469.31;;;16.00;100.00
70407;BME280;57821;52.202;0.154;2023-10-19T06:41:13;98468.19;;;16.04;100.00
70407;BME280;57821;52.202;0.154;2023-10-19T06:43:40;98462.88;;;16.06;100.00
70407;BME280;57821;52.202;0.154;2023-10-19T06:46:08;98467.88;;;16.09;100.00
70407;BME280;57821;52.202;0.154;2023-10-19T06:48:38;98466.88;;;16.11;100.00
70407;BME280;57821;52.202;0.154;2023-10-19T06:51:05;98465.81;;;16.14;100.00
70407;BME280;57821;52.202;0.154;2023-10-19T06:53:32;98458.09;;;16.12;100.00
70407;BME280;57821;52.202;0.154;2023-10-19T06:56:00;98471.91;;;16.14;100.00
70407;BME280;57821;52.202;0.154;2023-10-19T06:58:27;98464.81;;;16.16;100.00
70407;BME280;57821;52.202;0.154;2023-10-19T07:00:54;98464.81;;;16.16;100.00
70407;BME280;57821;52.202;0.154;2023-10-19T07:03:26;98464.59;;;16.19;100.00
70407;BME280;57821;52.202;0.154;2023-10-19T07:05:55;98468.19;;;16.18;100.00
70407;BME280;57821;52.202;0.154;2023-10-19T07:08:23;98469.81;;;16.19;100.00
70407;BME280;57821;52.202;0.154;2023-10-19T07:10:49;98466.28;;;16.20;100.00
70407;BME280;57821;52.202;0.154;2023-10-19T07:13:16;98461.81;;;16.22;100.00
70407;BME280;57821;52.202;0.154;2023-10-19T07:15:47;98457.72;;;16.18;100.00
70407;BME280;57821;52.202;0.154;2023-10-19T07:18:15;98466.09;;;16.23;100.00
70407;BME280;57821;52.202;0.154;2023-10-19T07:20:43;98474.69;;;16.25;100.00
70407;BME280;57821;52.202;0.154;2023-10-19T07:23:09;98476.56;;;16.23;100.00
70407;BME280;57821;52.202;0.154;2023-10-19T07:25:37;98480.75;;;16.26;100.00
70407;BME280;57821;52.202;0.154;2023-10-19T07:28:13;98478.03;;;16.27;100.00
70407;BME280;57821;52.202;0.154;2023-10-19T07:30:41;98485.72;;;16.30;100.00
70407;BME280;57821;52.202;0.154;2023-10-19T07:33:09;98480.47;;;16.30;100.00
70407;BME280;57821;52.202;0.154;2023-10-19T07:35:37;98487.38;;;16.31;100.00
70407;BME280;57821;52.202;0.154;2023-10-19T07:38:05;98478.50;;;16.34;100.00
70407;BME280;57821;52.202;0.154;2023-10-19T07:40:35;98479.34;;;16.34;100.00
70407;BME280;57821;52.202;0.154;2023-10-19T07:43:02;98482.72;;;16.36;100.00
70407;BME280;57821;52.202;0.154;2023-10-19T07:45:30;98483.44;;;16.38;100.00
70407;BME280;57821;52.202;0.154;2023-10-19T07:47:58;98473.72;;;16.40;100.00
70407;BME280;57821;52.202;0.154;2023-10-19T07:50:38;98476.25;;;16.42;100.00
70407;BME280;57821;52.202;0.154;2023-10-19T07:53:07;98480.44;;;16.44;100.00
70407;BME280;57821;52.202;0.154;2023-10-19T07:55:34;98473.34;;;16.47;100.00
70407;BME280;57821;52.202;0.154;2023-10-19T07:58:02;98474.81;;;16.51;100.00
70407;BME280;57821;52.202;0.154;2023-10-19T08:00:32;98485.09;;;16.54;100.00
70407;BME280;57821;52.202;0.154;2023-10-19T08:03:03;98477.97;;;16.56;100.00
70407;BME280;57821;52.202;0.154;2023-10-19T08:05:31;98485.66;;;16.59;100.00
70407;BME280;57821;52.202;0.154;2023-10-19T08:07:58;98484.75;;;16.60;100.00
70407;BME280;57821;52.202;0.154;2023-10-19T08:10:27;98485.38;;;16.63;100.00
70407;BME280;57821;52.202;0.154;2023-10-19T08:12:54;98489.69;;;16.64;100.00
70407;BME280;57821;52.202;0.154;2023-10-19T08:15:22;98489.47;;;16.67;100.00
70407;BME280;57821;52.202;0.154;2023-10-19T08:17:50;98496.28;;;16.70;100.00
70407;BME280;57821;52.202;0.154;2023-10-19T08:20:17;98485.72;;;16.71;100.00
70407;BME280;57821;52.202;0.154;2023-10-19T08:22:53;98487.13;;;16.77;100.00
70407;BME280;57821;52.202;0.154;2023-10-19T08:25:20;98481.56;;;16.81;100.00
70407;BME280;57821;52.202;0.154;2023-10-19T08:27:48;98485.75;;;16.84;100.00
70407;BME280;57821;52.202;0.154;2023-10-19T08:30:20;98484.63;;;16.88;100.00
70407;BME280;57821;52.202;0.154;2023-10-19T08:32:51;98485.34;;;16.90;100.00
70407;BME280;57821;52.202;0.154;2023-10-19T08:35:20;98474.88;;;16.90;100.00
70407;BME280;57821;52.202;0.154;2023-10-19T08:37:55;98482.34;;;16.96;100.00
70407;BME280;57821;52.202;0.154;2023-10-19T08:40:25;98479.31;;;17.02;100.00
70407;BME280;57821;52.202;0.154;2023-10-19T08:42:53;98479.00;;;17.07;100.00
70407;BME280;57821;52.202;0.154;2023-10-19T08:45:20;98482.28;;;17.10;100.00
70407;BME280;57821;52.202;0.154;2023-10-19T08:50:20;98476.75;;;17.15;100.00
70407;BME280;57821;52.202;0.154;2023-10-19T08:52:53;98485.88;;;17.22;100.00
70407;BME280;57821;52.202;0.154;2023-10-19T08:55:21;98489.13;;;17.25;100.00
70407;BME280;57821;52.202;0.154;2023-10-19T08:58:06;98486.19;;;17.30;100.00
70407;BME280;57821;52.202;0.154;2023-10-19T09:00:44;98488.94;;;17.29;100.00
70407;BME280;57821;52.202;0.154;2023-10-19T09:03:14;98484.22;;;17.34;100.00
70407;BME280;57821;52.202;0.154;2023-10-19T09:05:43;98495.22;;;17.39;100.00
70407;BME280;57821;52.202;0.154;2023-10-19T09:08:17;98486.44;;;17.40;99.52
70407;BME280;57821;52.202;0.154;2023-10-19T09:10:46;98495.13;;;17.40;99.05
70407;BME280;57821;52.202;0.154;2023-10-19T09:13:13;98483.72;;;17.41;99.35
70407;BME280;57821;52.202;0.154;2023-10-19T09:15:44;98480.97;;;17.43;99.31
70407;BME280;57821;52.202;0.154;2023-10-19T09:20:42;98480.66;;;17.47;99.46
70407;BME280;57821;52.202;0.154;2023-10-19T09:23:13;98480.56;;;17.49;99.06
70407;BME280;57821;52.202;0.154;2023-10-19T09:25:40;98484.84;;;17.50;99.05
70407;BME280;57821;52.202;0.154;2023-10-19T09:28:06;98479.53;;;17.51;98.14
70407;BME280;57821;52.202;0.154;2023-10-19T09:30:37;98488.94;;;17.54;98.27
70407;BME280;57821;52.202;0.154;2023-10-19T09:33:05;98487.16;;;17.54;97.36
70407;BME280;57821;52.202;0.154;2023-10-19T09:35:34;98488.94;;;17.54;97.91
70407;BME280;57821;52.202;0.154;2023-10-19T09:38:01;98487.06;;;17.56;97.91
70407;BME280;57821;52.202;0.154;2023-10-19T09:40:31;98485.19;;;17.58;97.68
70407;BME280;57821;52.202;0.154;2023-10-19T09:42:58;98485.84;;;17.61;98.11
70407;BME280;57821;52.202;0.154;2023-10-19T09:45:32;98491.69;;;17.65;97.82
70407;BME280;57821;52.202;0.154;2023-10-19T09:48:05;98489.81;;;17.67;97.94
70407;BME280;57821;52.202;0.154;2023-10-19T09:50:33;98486.88;;;17.72;97.94
70407;BME280;57821;52.202;0.154;2023-10-19T09:53:01;98482.28;;;17.75;97.94
70407;BME280;57821;52.202;0.154;2023-10-19T09:55:34;98491.72;;;17.78;97.29
70407;BME280;57821;52.202;0.154;2023-10-19T09:58:06;98494.22;;;17.79;96.73
70407;BME280;57821;52.202;0.154;2023-10-19T10:00:37;98487.22;;;17.80;96.57
70407;BME280;57821;52.202;0.154;2023-10-19T10:03:05;98497.69;;;17.80;96.37
70407;BME280;57821;52.202;0.154;2023-10-19T10:10:44;98487.41;;;17.77;95.73
70407;BME280;57821;52.202;0.154;2023-10-19T10:15:54;98487.53;;;17.75;95.29
70407;BME280;57821;52.202;0.154;2023-10-19T10:18:25;98482.16;;;17.77;95.64
70407;BME280;57821;52.202;0.154;2023-10-19T10:21:05;98487.31;;;17.78;96.05
70407;BME280;57821;52.202;0.154;2023-10-19T10:23:40;98493.06;;;17.83;95.89
70407;BME280;57821;52.202;0.154;2023-10-19T10:26:13;98486.88;;;17.84;95.88
70407;BME280;57821;52.202;0.154;2023-10-19T10:28:45;98486.28;;;17.93;96.61
70407;BME280;57821;52.202;0.154;2023-10-19T10:31:21;98483.59;;;18.06;96.73
70407;BME280;57821;52.202;0.154;2023-10-19T10:33:53;98491.69;;;18.16;96.27
70407;BME280;57821;52.202;0.154;2023-10-19T10:36:23;98498.19;;;18.23;96.17
70407;BME280;57821;52.202;0.154;2023-10-19T10:38:50;98489.75;;;18.30;95.76
70407;BME280;57821;52.202;0.154;2023-10-19T10:41:24;98494.81;;;18.33;95.04
70407;BME280;57821;52.202;0.154;2023-10-19T10:43:58;98488.47;;;18.36;94.27
70407;BME280;57821;52.202;0.154;2023-10-19T10:46:26;98484.31;;;18.33;94.44
70407;BME280;57821;52.202;0.154;2023-10-19T10:48:56;98488.28;;;18.39;93.86
70407;BME280;57821;52.202;0.154;2023-10-19T10:51:25;98502.09;;;18.41;93.85
70407;BME280;57821;52.202;0.154;2023-10-19T10:53:54;98495.22;;;18.40;93.98
70407;BME280;57821;52.202;0.154;2023-10-19T10:56:22;98505.56;;;18.41;93.74
70407;BME280;57821;52.202;0.154;2023-10-19T10:58:50;98503.78;;;18.42;94.12
70407;BME280;57821;52.202;0.154;2023-10-19T11:01:32;98497.94;;;18.38;93.96
70407;BME280;57821;52.202;0.154;2023-10-19T11:04:07;98502.53;;;18.35;94.64
70407;BME280;57821;52.202;0.154;2023-10-19T11:07:01;98499.63;;;18.27;95.22
70407;BME280;57821;52.202;0.154;2023-10-19T11:09:27;98504.25;;;18.23;94.76
70407;BME280;57821;52.202;0.154;2023-10-19T11:11:56;98495.03;;;18.18;94.97
70407;BME280;57821;52.202;0.154;2023-10-19T11:14:22;98497.13;;;18.13;95.43
70407;BME280;57821;52.202;0.154;2023-10-19T11:16:51;98481.72;;;18.08;95.51
70407;BME280;57821;52.202;0.154;2023-10-19T11:19:17;98480.16;;;18.05;96.42
70407;BME280;57821;52.202;0.154;2023-10-19T11:21:54;98482.25;;;18.00;96.77
70407;BME280;57821;52.202;0.154;2023-10-19T11:24:26;98483.31;;;17.98;96.96
70407;BME280;57821;52.202;0.154;2023-10-19T11:26:53;98470.53;;;17.93;96.92
70407;BME280;57821;52.202;0.154;2023-10-19T11:29:22;98461.31;;;17.88;97.60
70407;BME280;57821;52.202;0.154;2023-10-19T11:32:00;98462.34;;;17.85;98.41
70407;BME280;57821;52.202;0.154;2023-10-19T11:34:28;98452.06;;;17.82;98.06
70407;BME280;57821;52.202;0.154;2023-10-19T11:36:57;98468.03;;;17.79;98.20
70407;BME280;57821;52.202;0.154;2023-10-19T11:39:26;98470.66;;;17.79;98.80
70407;BME280;57821;52.202;0.154;2023-10-19T11:41:53;98472.22;;;17.82;100.00
70407;BME280;57821;52.202;0.154;2023-10-19T11:44:20;98450.19;;;17.84;100.00
70407;BME280;57821;52.202;0.154;2023-10-19T11:46:46;98449.75;;;17.90;100.00
70407;BME280;57821;52.202;0.154;2023-10-19T11:49:13;98453.75;;;17.96;100.00
70407;BME280;57821;52.202;0.154;2023-10-19T11:51:40;98444.59;;;18.01;100.00
70407;BME280;57821;52.202;0.154;2023-10-19T11:54:07;98436.31;;;18.08;100.00
70407;BME280;57821;52.202;0.154;2023-10-19T11:56:34;98445.41;;;18.15;100.00
70407;BME280;57821;52.202;0.154;2023-10-19T11:59:01;98431.88;;;18.21;100.00
70407;BME280;57821;52.202;0.154;2023-10-19T12:01:28;98436.78;;;18.25;99.49
70407;BME280;57821;52.202;0.154;2023-10-19T12:03:56;98443.38;;;18.31;99.18
70407;BME280;57821;52.202;0.154;2023-10-19T12:06:22;98434.34;;;18.35;98.83
70407;BME280;57821;52.202;0.154;2023-10-19T12:08:50;98430.56;;;18.39;99.10
70407;BME280;57821;52.202;0.154;2023-10-19T12:11:17;98434.63;;;18.43;97.60
70407;BME280;57821;52.202;0.154;2023-10-19T12:13:45;98424.88;;;18.45;97.30
70407;BME280;57821;52.202;0.154;2023-10-19T12:16:14;98437.06;;;18.46;96.56
70407;BME280;57821;52.202;0.154;2023-10-19T12:18:43;98437.06;;;18.46;96.93
70407;BME280;57821;52.202;0.154;2023-10-19T12:21:10;98437.84;;;18.46;96.02
70407;BME280;57821;52.202;0.154;2023-10-19T12:23:41;98432.59;;;18.46;95.15
70407;BME280;57821;52.202;0.154;2023-10-19T12:26:07;98426.75;;;18.43;95.22
70407;BME280;57821;52.202;0.154;2023-10-19T12:28:41;98423.63;;;18.38;94.89
70407;BME280;57821;52.202;0.154;2023-10-19T12:31:11;98431.50;;;18.38;94.32
70407;BME280;57821;52.202;0.154;2023-10-19T12:33:38;98432.44;;;18.37;94.61
70407;BME280;57821;52.202;0.154;2023-10-19T12:36:05;98426.34;;;18.36;94.38
70407;BME280;57821;52.202;0.154;2023-10-19T12:38:52;98427.31;;;18.35;94.82
70407;BME280;57821;52.202;0.154;2023-10-19T12:41:19;98436.84;;;18.36;94.35
70407;BME280;57821;52.202;0.154;2023-10-19T12:43:47;98430.75;;;18.36;94.99
70407;BME280;57821;52.202;0.154;2023-10-19T12:46:14;98420.28;;;18.36;94.52
70407;BME280;57821;52.202;0.154;2023-10-19T12:48:43;98426.34;;;18.36;94.54
70407;BME280;57821;52.202;0.154;2023-10-19T12:51:09;98425.53;;;18.36;94.65
70407;BME280;57821;52.202;0.154;2023-10-19T12:53:40;98425.41;;;18.37;94.26
70407;BME280;57821;52.202;0.154;2023-10-19T12:56:06;98422.69;;;18.39;93.81
70407;BME280;57821;52.202;0.154;2023-10-19T12:58:37;98425.06;;;18.42;94.71
70407;BME280;57821;52.202;0.154;2023-10-19T13:01:04;98422.25;;;18.45;94.92
70407;BME280;57821;52.202;0.154;2023-10-19T13:03:31;98412.16;;;18.52;94.75
70407;BME280;57821;52.202;0.154;2023-10-19T13:05:59;98403.97;;;18.56;94.53
70407;BME280;57821;52.202;0.154;2023-10-19T13:08:30;98401.59;;;18.64;95.10
70407;BME280;57821;52.202;0.154;2023-10-19T13:10:57;98406.28;;;18.72;94.36
70407;BME280;57821;52.202;0.154;2023-10-19T13:13:34;98397.88;;;18.79;94.16
70407;BME280;57821;52.202;0.154;2023-10-19T13:16:02;98401.91;;;18.83;93.71
70407;BME280;57821;52.202;0.154;2023-10-19T13:18:32;98395.47;;;18.87;93.01
70407;BME280;57821;52.202;0.154;2023-10-19T13:21:02;98398.00;;;18.89;92.34
70407;BME280;57821;52.202;0.154;2023-10-19T13:23:31;98389.38;;;18.87;91.55
70407;BME280;57821;52.202;0.154;2023-10-19T13:26:00;98398.25;;;18.86;92.29
70407;BME280;57821;52.202;0.154;2023-10-19T13:28:44;98400.97;;;18.84;91.64